KCVO/CVO METAR and TAF weather

Enter ICAO airport designator
Station Type Date Time Source
KCVO METAR 2020/07/07 23:56 UTC NOAA

KCVO 072356Z AUTO 31011G18KT 10SM OVC090 21/13 A3013 RMK AO2 SLP202 T02110128 10222 20178 58007


Station Type Date Time Source
KCVO Decoded METAR 2020/07/07 23:56 UTC NOAA

Corvallis, Corvallis Municipal Airport, OR, United States (KCVO) 44-30N 123-17W
Jul 07, 2020 - 07:56 PM EDT / 2020.07.07 2356 UTC
Wind: from the NW (310 degrees) at 13 MPH (11 KT) gusting to 21 MPH (18 KT):0
Visibility: 10 mile(s):0
Sky conditions: overcast
Temperature: 70.0 F (21.1 C)
Dew Point: 55.0 F (12.8 C)
Relative Humidity: 59%
Pressure (altimeter): 30.13 in. Hg (1020 hPa)
Pressure tendency: 0.02 inches (0.7 hPa) lower than three hours ago
ob: KCVO 072356Z AUTO 31011G18KT 10SM OVC090 21/13 A3013 RMK AO2 SLP202 T02110128 10222 20178 58007
cycle: 0

Station Type Date Time Source
KCVO TAF UTC NOAA

Error!

Example: see airport list